createdAt,value
2017-10-15T00:00:19.560Z,86.88
2017-10-15T00:01:30.054Z,86.98
2017-10-15T00:02:40.230Z,87.46
2017-10-15T00:03:50.425Z,86.79
2017-10-15T00:05:00.954Z,87.27
2017-10-15T00:06:12.218Z,86.98
2017-10-15T00:07:22.736Z,87.37
2017-10-15T00:08:33.258Z,87.65
2017-10-15T00:09:43.980Z,87.74
2017-10-15T00:10:54.582Z,87.74
2017-10-15T00:12:05.092Z,87.46
2017-10-15T00:13:15.580Z,87.65
2017-10-15T00:14:26.213Z,87.74
2017-10-15T00:15:36.711Z,87.65
2017-10-15T00:16:47.209Z,87.65
2017-10-15T00:17:57.720Z,88.13
2017-10-15T00:19:08.257Z,88.13
2017-10-15T00:20:18.787Z,88.23
2017-10-15T00:21:29.291Z,88.03
2017-10-15T00:22:39.805Z,88.13
2017-10-15T00:23:50.351Z,88.03
2017-10-15T00:25:00.843Z,87.94
2017-10-15T00:26:11.323Z,88.03
2017-10-15T00:27:22.216Z,88.23
2017-10-15T00:28:33.412Z,87.94
2017-10-15T00:29:44.458Z,88.28
2017-10-15T00:30:55.181Z,87.99
2017-10-15T00:32:05.658Z,88.28
2017-10-15T00:33:16.125Z,88.23
2017-10-15T00:34:26.618Z,88.99
2017-10-15T00:35:37.100Z,88.7
2017-10-15T00:36:47.597Z,88.51
2017-10-15T00:37:58.065Z,88.51
2017-10-15T00:39:08.657Z,88.9
2017-10-15T00:40:19.160Z,88.7
2017-10-15T00:41:29.635Z,88.85
2017-10-15T00:42:40.241Z,88.9
2017-10-15T00:43:50.285Z,88.76
2017-10-15T00:45:00.786Z,88.66
2017-10-15T00:46:11.365Z,88.51
2017-10-15T00:47:21.879Z,88.7
2017-10-15T00:48:32.399Z,88.8
2017-10-15T00:49:42.884Z,88.76
2017-10-15T00:50:53.409Z,88.76
2017-10-15T00:52:03.922Z,88.76
2017-10-15T00:53:14.178Z,88.99
2017-10-15T00:54:24.658Z,88.85
2017-10-15T00:55:35.160Z,88.51
2017-10-15T00:56:45.636Z,88.51
2017-10-15T00:57:56.139Z,88.56
2017-10-15T00:59:06.640Z,89.18
2017-10-15T01:00:17.134Z,89.23
2017-10-15T01:01:27.706Z,89.18
2017-10-15T01:02:38.187Z,89.18
2017-10-15T01:03:48.745Z,89.18
2017-10-15T01:04:59.230Z,89.09
2017-10-15T01:06:09.705Z,88.99
2017-10-15T01:07:20.178Z,89.28
2017-10-15T01:08:30.653Z,88.7
2017-10-15T01:09:41.177Z,89.18
2017-10-15T01:10:51.664Z,89.18
2017-10-15T01:12:02.154Z,89.18
2017-10-15T01:13:12.626Z,89.14
2017-10-15T01:14:23.136Z,89.04
2017-10-15T01:15:33.696Z,89.14
2017-10-15T01:16:44.171Z,89.33
2017-10-15T01:17:54.674Z,89.04
2017-10-15T01:19:05.149Z,88.9
2017-10-15T01:20:15.808Z,88.95
2017-10-15T01:21:26.365Z,89.14
2017-10-15T01:22:36.832Z,89.14
2017-10-15T01:23:47.316Z,89.04
2017-10-15T01:24:57.846Z,89.04
2017-10-15T01:26:08.005Z,88.95
2017-10-15T01:27:18.489Z,89.14
2017-10-15T01:28:28.961Z,89.62
2017-10-15T01:29:39.454Z,88.95
2017-10-15T01:30:50.136Z,88.95
2017-10-15T01:32:00.664Z,88.95
2017-10-15T01:33:11.196Z,89.23
2017-10-15T01:34:21.480Z,89.81
2017-10-15T01:35:31.631Z,89.62
2017-10-15T01:36:42.129Z,89.62
2017-10-15T01:37:52.635Z,89.62
2017-10-15T01:39:03.189Z,89.43
2017-10-15T01:40:13.776Z,89.72
2017-10-15T01:41:24.275Z,89.9
2017-10-15T01:42:34.791Z,89.9
2017-10-15T01:43:45.317Z,89.81
2017-10-15T01:44:56.771Z,89.81
2017-10-15T01:46:07.344Z,89.52
2017-10-15T01:47:17.818Z,89.72
2017-10-15T01:48:28.350Z,89.52
2017-10-15T01:49:38.543Z,89.72
2017-10-15T01:50:49.257Z,89.72
2017-10-15T01:51:59.750Z,89.81
2017-10-15T01:53:10.239Z,89.62
2017-10-15T01:54:20.726Z,89.62
2017-10-15T01:55:31.262Z,89.52
2017-10-15T01:56:41.739Z,89.62
2017-10-15T01:57:52.201Z,89.43
2017-10-15T01:59:02.733Z,89.43
2017-10-15T02:00:13.215Z,89.72
2017-10-15T02:01:23.738Z,89.72
2017-10-15T02:02:33.916Z,89.62
2017-10-15T02:03:44.404Z,89.81
2017-10-15T02:04:55.000Z,89.33
2017-10-15T02:06:05.595Z,89.43
2017-10-15T02:07:16.095Z,89.43
2017-10-15T02:08:26.785Z,89.81
2017-10-15T02:09:37.307Z,89.81
2017-10-15T02:10:47.788Z,90
2017-10-15T02:11:57.959Z,89.62
2017-10-15T02:13:08.430Z,89.43
2017-10-15T02:14:18.957Z,89.52
2017-10-15T02:15:29.448Z,89.04
2017-10-15T02:16:39.951Z,89.04
2017-10-15T02:17:50.107Z,89.14
2017-10-15T02:19:00.803Z,88.81
2017-10-15T02:20:11.286Z,88.85
2017-10-15T02:21:21.751Z,88.81
2017-10-15T02:22:33.222Z,89
2017-10-15T02:23:43.746Z,88.95
2017-10-15T02:24:54.470Z,89.09
2017-10-15T02:26:04.960Z,89.23
2017-10-15T02:27:15.490Z,88.9
2017-10-15T02:28:25.969Z,88.85
2017-10-15T02:29:36.108Z,89.33
2017-10-15T02:30:46.611Z,89.43
2017-10-15T02:31:57.170Z,89.23
2017-10-15T02:33:07.798Z,88.76
2017-10-15T02:34:18.302Z,88.95
2017-10-15T02:35:28.871Z,89.04
2017-10-15T02:36:39.358Z,89.09
2017-10-15T02:37:49.878Z,89
2017-10-15T02:39:00.367Z,89.23
2017-10-15T02:40:10.859Z,89
2017-10-15T02:41:21.350Z,88.81
2017-10-15T02:42:31.878Z,89.48
2017-10-15T02:43:42.381Z,89.58
2017-10-15T02:44:52.859Z,89.58
2017-10-15T02:46:03.358Z,89.58
2017-10-15T02:47:13.885Z,89.19
2017-10-15T02:48:24.355Z,89.29
2017-10-15T02:49:34.824Z,88.71
2017-10-15T02:50:45.337Z,88.9
2017-10-15T02:51:55.851Z,88.81
2017-10-15T02:53:06.352Z,88.9
2017-10-15T02:54:16.839Z,88.81
2017-10-15T02:55:27.311Z,89.19
2017-10-15T02:56:37.822Z,89
2017-10-15T02:57:48.343Z,88.71
2017-10-15T02:58:58.827Z,88.71
2017-10-15T03:00:09.406Z,89.19
2017-10-15T03:01:19.921Z,89.29
2017-10-15T03:02:30.403Z,89.58
2017-10-15T03:03:40.915Z,89.38
2017-10-15T03:04:51.393Z,89.58
2017-10-15T03:06:01.911Z,89.58
2017-10-15T03:07:12.376Z,89.58
2017-10-15T03:08:22.929Z,89.76
2017-10-15T03:09:33.412Z,89.09
2017-10-15T03:10:43.894Z,89
2017-10-15T03:11:54.509Z,88.81
2017-10-15T03:13:04.995Z,89.09
2017-10-15T03:14:15.499Z,89.09
2017-10-15T03:15:25.999Z,89.29
2017-10-15T03:16:36.522Z,89.67
2017-10-15T03:17:46.994Z,88.9
2017-10-15T03:18:57.180Z,89
2017-10-15T03:20:07.677Z,89
2017-10-15T03:21:18.270Z,89.24
2017-10-15T03:22:28.738Z,89.91
2017-10-15T03:23:39.277Z,89.05
2017-10-15T03:24:49.338Z,89.24
2017-10-15T03:25:59.509Z,88.86
2017-10-15T03:27:10.006Z,89
2017-10-15T03:28:20.627Z,89.05
2017-10-15T03:29:31.115Z,88.95
2017-10-15T03:30:41.248Z,88.86
2017-10-15T03:31:51.756Z,89.05
2017-10-15T03:33:02.281Z,88.76
2017-10-15T03:34:12.749Z,88.76
2017-10-15T03:35:23.258Z,88.86
2017-10-15T03:36:33.760Z,89.24
2017-10-15T03:37:43.915Z,89.62
2017-10-15T03:38:54.505Z,89.91
2017-10-15T03:40:05.008Z,89.76
2017-10-15T03:41:15.529Z,89.76
2017-10-15T03:42:26.053Z,89.72
2017-10-15T03:43:36.546Z,89.67
2017-10-15T03:44:47.111Z,89.53
2017-10-15T03:45:57.618Z,89.62
2017-10-15T03:47:08.145Z,89.72
2017-10-15T03:48:18.604Z,89.72
2017-10-15T03:49:29.084Z,89.72
2017-10-15T03:50:39.568Z,89.72
2017-10-15T03:51:50.073Z,89.72
2017-10-15T03:53:00.561Z,89.81
2017-10-15T03:54:11.036Z,89.91
2017-10-15T03:55:21.850Z,89.72
2017-10-15T03:56:32.333Z,89.43
2017-10-15T03:57:42.861Z,89.58
2017-10-15T03:58:53.549Z,89.34
2017-10-15T04:00:04.034Z,89.24
2017-10-15T04:01:14.180Z,89.43
2017-10-15T04:02:24.786Z,88.76
2017-10-15T04:03:34.855Z,88.67
2017-10-15T04:04:45.465Z,88.76
2017-10-15T04:05:55.959Z,89.05
2017-10-15T04:07:06.343Z,89.24
2017-10-15T04:08:16.847Z,89.15
2017-10-15T04:09:27.342Z,88.67
2017-10-15T04:10:37.890Z,88.95
2017-10-15T04:11:48.368Z,89.53
2017-10-15T04:12:58.858Z,89.43
2017-10-15T04:14:09.357Z,89.72
2017-10-15T04:15:19.825Z,89.34
2017-10-15T04:16:30.323Z,89.34
2017-10-15T04:17:40.787Z,89.43
2017-10-15T04:18:51.295Z,89.81
2017-10-15T04:20:01.762Z,89.72
2017-10-15T04:21:12.307Z,89.72
2017-10-15T04:22:22.765Z,89.62
2017-10-15T04:23:33.249Z,89.72
2017-10-15T04:24:43.720Z,89.72
2017-10-15T04:25:54.255Z,89.81
2017-10-15T04:27:04.765Z,90.1
2017-10-15T04:28:15.253Z,89.81
2017-10-15T04:29:25.825Z,90.01
2017-10-15T04:30:36.336Z,90.1
2017-10-15T04:31:46.817Z,89.43
2017-10-15T04:32:57.285Z,89.62
2017-10-15T04:34:07.758Z,89.91
2017-10-15T04:35:18.238Z,89.62
2017-10-15T04:36:28.762Z,89.53
2017-10-15T04:37:39.252Z,89.01
2017-10-15T04:38:49.455Z,89.62
2017-10-15T04:39:59.643Z,89.67
2017-10-15T04:41:10.125Z,89.48
2017-10-15T04:42:20.634Z,89.2
2017-10-15T04:43:31.099Z,89.2
2017-10-15T04:44:41.570Z,89.48
2017-10-15T04:45:53.021Z,89.67
2017-10-15T04:47:03.604Z,89.67
2017-10-15T04:48:14.132Z,89.58
2017-10-15T04:49:24.601Z,89.72
2017-10-15T04:50:35.118Z,90.06
2017-10-15T04:51:45.599Z,89.87
2017-10-15T04:52:55.748Z,89.67
2017-10-15T04:54:06.347Z,89.62
2017-10-15T04:55:16.809Z,89.48
2017-10-15T04:56:27.329Z,89.67
2017-10-15T04:57:37.794Z,89.87
2017-10-15T04:58:48.310Z,89.96
2017-10-15T04:59:58.798Z,89.77
2017-10-15T05:01:09.288Z,89.67
2017-10-15T05:02:19.818Z,89.67
2017-10-15T05:03:30.293Z,89.39
2017-10-15T05:04:40.016Z,89.39
2017-10-15T05:05:50.527Z,89.48
2017-10-15T05:07:00.987Z,89.48
2017-10-15T05:08:11.497Z,89.2
2017-10-15T05:09:21.983Z,89.67
2017-10-15T05:10:32.446Z,89.67
2017-10-15T05:11:42.912Z,89.67
2017-10-15T05:12:53.390Z,90.16
2017-10-15T05:14:03.886Z,89.96
2017-10-15T05:15:14.431Z,90.25
2017-10-15T05:16:24.942Z,89.96
2017-10-15T05:17:35.405Z,89.96
2017-10-15T05:18:45.989Z,89.96
2017-10-15T05:19:56.481Z,90.34
2017-10-15T05:21:06.631Z,90.1
2017-10-15T05:22:17.104Z,90.06
2017-10-15T05:23:27.597Z,90.06
2017-10-15T05:24:38.328Z,90.53
2017-10-15T05:25:48.818Z,90.53
2017-10-15T05:26:59.298Z,90.16
2017-10-15T05:28:09.814Z,90.25
2017-10-15T05:29:20.314Z,90.34
2017-10-15T05:30:30.828Z,90.34
2017-10-15T05:31:41.324Z,90.63
2017-10-15T05:32:51.842Z,90.63
2017-10-15T05:34:03.303Z,90.25
2017-10-15T05:35:13.797Z,90.16
2017-10-15T05:36:24.403Z,90.53
2017-10-15T05:37:34.897Z,90.92
2017-10-15T05:38:45.362Z,90.53
2017-10-15T05:39:55.856Z,90.78
2017-10-15T05:41:06.339Z,90.97
2017-10-15T05:42:16.860Z,91.25
2017-10-15T05:43:27.563Z,91.83
2017-10-15T05:44:38.061Z,91.64
2017-10-15T05:45:48.551Z,91.74
2017-10-15T05:46:59.025Z,91.54
2017-10-15T05:48:09.533Z,91.74
2017-10-15T05:49:19.996Z,92.21
2017-10-15T05:50:30.479Z,92.21
2017-10-15T05:51:41.002Z,92.21
2017-10-15T05:52:51.167Z,92.69
2017-10-15T05:54:01.646Z,92.54
2017-10-15T05:55:12.125Z,92.54
2017-10-15T05:56:22.645Z,92.74
2017-10-15T05:57:33.138Z,92.25
2017-10-15T05:58:45.232Z,92.54
2017-10-15T05:59:55.811Z,92.25
2017-10-15T06:01:06.303Z,92.54
2017-10-15T06:02:16.784Z,92.35
2017-10-15T06:03:27.255Z,92.25
2017-10-15T06:04:37.353Z,92.35
2017-10-15T06:05:47.838Z,92.07
2017-10-15T06:06:58.300Z,92.07
2017-10-15T06:08:08.826Z,92.35
2017-10-15T06:09:19.313Z,92.25
2017-10-15T06:10:29.797Z,91.59
2017-10-15T06:11:40.311Z,91.88
2017-10-15T06:12:50.776Z,91.49
2017-10-15T06:14:01.250Z,91.97
2017-10-15T06:15:11.725Z,91.88
2017-10-15T06:16:22.259Z,91.3
2017-10-15T06:17:32.758Z,91.88
2017-10-15T06:18:43.257Z,92.07
2017-10-15T06:19:53.762Z,91.88
2017-10-15T06:21:04.261Z,91.88
2017-10-15T06:22:14.763Z,91.88
2017-10-15T06:23:25.236Z,91.97
2017-10-15T06:24:35.741Z,91.88
2017-10-15T06:25:46.246Z,91.92
2017-10-15T06:26:56.727Z,91.25
2017-10-15T06:28:07.208Z,91.44
2017-10-15T06:29:17.689Z,91.44
2017-10-15T06:30:28.858Z,91.35
2017-10-15T06:31:39.386Z,90.87
2017-10-15T06:32:49.896Z,91.06
2017-10-15T06:34:00.560Z,91.06
2017-10-15T06:35:11.067Z,90.96
2017-10-15T06:36:21.556Z,90.87
2017-10-15T06:37:32.025Z,90.87
2017-10-15T06:38:42.568Z,90.77
2017-10-15T06:39:53.076Z,90.96
2017-10-15T06:41:03.549Z,91.25
2017-10-15T06:42:14.167Z,91.53
2017-10-15T06:43:24.665Z,91.06
2017-10-15T06:44:34.735Z,91.16
2017-10-15T06:45:45.318Z,91.53
2017-10-15T06:46:55.804Z,91.63
2017-10-15T06:48:06.506Z,91.44
2017-10-15T06:49:16.983Z,91.06
2017-10-15T06:50:27.548Z,91.35
2017-10-15T06:51:39.046Z,91.16
2017-10-15T06:52:49.539Z,91.25
2017-10-15T06:54:00.024Z,91.58
2017-10-15T06:55:10.538Z,91.3
2017-10-15T06:56:20.715Z,91.3
2017-10-15T06:57:31.200Z,91.39
2017-10-15T06:58:41.689Z,90.96
2017-10-15T06:59:52.188Z,91.05
2017-10-15T07:01:02.755Z,90.67
2017-10-15T07:02:13.270Z,90.39
2017-10-15T07:03:23.809Z,89.76
2017-10-15T07:04:34.333Z,88.99
2017-10-15T07:05:44.820Z,88.27
2017-10-15T07:06:55.300Z,86.21
2017-10-15T07:08:05.838Z,84.41
2017-10-15T07:09:16.382Z,82.96
2017-10-15T07:10:26.878Z,80.77
2017-10-15T07:11:37.482Z,78.73
2017-10-15T07:12:47.957Z,76.88
2017-10-15T07:13:58.525Z,74.93
2017-10-15T07:15:09.116Z,73.74
2017-10-15T07:16:19.637Z,71.84
2017-10-15T07:17:30.127Z,68.63
2017-10-15T07:18:40.634Z,66.82
2017-10-15T07:19:51.122Z,65.4
2017-10-15T07:21:01.615Z,62.62
2017-10-15T07:22:12.132Z,60.71
2017-10-15T07:23:22.644Z,60.23
2017-10-15T07:24:33.168Z,58.7
2017-10-15T07:25:43.703Z,58.54
2017-10-15T07:26:54.308Z,57.86
2017-10-15T07:28:04.857Z,57.5
2017-10-15T07:29:15.374Z,56.85
2017-10-15T07:30:25.870Z,55.58
2017-10-15T07:31:36.388Z,55.41
2017-10-15T07:32:46.882Z,55.03
2017-10-15T07:33:57.505Z,54.08
2017-10-15T07:35:07.940Z,53.59
2017-10-15T07:36:18.237Z,52.92
2017-10-15T07:37:28.752Z,52.53
2017-10-15T07:38:39.339Z,52.14
2017-10-15T07:39:49.560Z,51.77
2017-10-15T07:41:00.063Z,50.99
2017-10-15T07:42:10.565Z,50.9
2017-10-15T07:43:20.788Z,50.31
2017-10-15T07:44:31.513Z,49.76
2017-10-15T07:45:43.185Z,49.27
2017-10-15T07:46:53.934Z,49.56
2017-10-15T07:48:04.666Z,47.63
2017-10-15T07:49:15.228Z,47.15
2017-10-15T07:50:25.754Z,47.63
2017-10-15T07:51:36.308Z,47.44
2017-10-15T07:52:47.889Z,47.56
2017-10-15T07:53:58.391Z,46.59
2017-10-15T07:55:08.922Z,46.2
2017-10-15T07:56:19.448Z,45.83
2017-10-15T07:57:29.967Z,46.02
2017-10-15T07:58:40.225Z,45.26
2017-10-15T07:59:50.766Z,44.87
2017-10-15T08:01:01.318Z,44.87
2017-10-15T08:02:11.825Z,43.63
2017-10-15T08:03:22.331Z,44.41
2017-10-15T08:04:32.848Z,43.46
2017-10-15T08:05:43.368Z,43.36
2017-10-15T08:06:53.893Z,42.77
2017-10-15T08:08:04.604Z,41.91
2017-10-15T08:09:15.113Z,41.64
2017-10-15T08:10:25.625Z,41.52
2017-10-15T08:11:36.188Z,41.83
2017-10-15T08:12:46.819Z,41.54
2017-10-15T08:13:57.358Z,40.58
2017-10-15T08:15:07.938Z,40.88
2017-10-15T08:16:18.650Z,40.21
2017-10-15T08:17:29.191Z,40.11
2017-10-15T08:18:39.362Z,39.33
2017-10-15T08:19:49.868Z,38.47
2017-10-15T08:21:00.453Z,38.76
2017-10-15T08:22:11.212Z,38.1
2017-10-15T08:23:22.133Z,37.9
2017-10-15T08:24:32.732Z,37.9
2017-10-15T08:25:44.453Z,37.92
2017-10-15T08:28:10.190Z,37.35
2017-10-15T08:29:20.723Z,36.66
2017-10-15T08:30:31.219Z,36.09
2017-10-15T08:31:41.719Z,36.19
2017-10-15T08:32:52.219Z,36.39
2017-10-15T08:34:02.763Z,36.09
2017-10-15T08:35:13.329Z,35.8
2017-10-15T08:36:23.849Z,34.81
2017-10-15T08:37:34.386Z,35.31
2017-10-15T08:38:45.036Z,34.92
2017-10-15T08:39:55.538Z,35.23
2017-10-15T08:41:06.069Z,35.03
2017-10-15T08:42:16.574Z,34.74
2017-10-15T08:43:27.069Z,34.75
2017-10-15T08:44:38.561Z,34.75
2017-10-15T08:45:49.078Z,34.66
2017-10-15T08:46:59.597Z,34.06
2017-10-15T08:48:10.142Z,33.89
2017-10-15T08:49:20.654Z,34.06
2017-10-15T08:50:31.249Z,33.77
2017-10-15T08:51:41.778Z,33.59
2017-10-15T08:52:52.294Z,33.59
2017-10-15T08:54:02.820Z,33.59
2017-10-15T08:55:13.327Z,33.59
2017-10-15T08:56:23.863Z,33.49
2017-10-15T08:57:34.402Z,33.59
2017-10-15T08:58:44.997Z,33.59
2017-10-15T08:59:55.528Z,33.41
2017-10-15T09:01:06.155Z,33.51
2017-10-15T09:02:16.697Z,33.39
2017-10-15T09:03:27.205Z,33.29
2017-10-15T09:04:37.384Z,33.29
2017-10-15T09:05:48.077Z,33.39
2017-10-15T09:06:58.630Z,32.9
2017-10-15T09:08:09.157Z,33.39
2017-10-15T09:09:19.752Z,33.29
2017-10-15T09:10:30.296Z,33.39
2017-10-15T09:11:40.790Z,32.81
2017-10-15T09:12:51.376Z,33.59
2017-10-15T09:14:01.961Z,33.29
2017-10-15T09:15:12.449Z,33.2
2017-10-15T09:16:22.997Z,33.59
2017-10-15T09:17:33.534Z,33.28
2017-10-15T09:18:44.064Z,33.38
2017-10-15T09:19:54.682Z,33.65
2017-10-15T09:21:05.277Z,33.65
2017-10-15T09:22:15.783Z,33.75
2017-10-15T09:23:25.949Z,34.05
2017-10-15T09:24:36.436Z,33.85
2017-10-15T09:25:46.974Z,33.64
2017-10-15T09:26:57.465Z,33.85
2017-10-15T09:28:08.017Z,33.85
2017-10-15T09:29:18.624Z,33.95
2017-10-15T09:30:29.139Z,33.95
2017-10-15T09:31:39.749Z,33.85
2017-10-15T09:32:50.351Z,33.95
2017-10-15T09:34:00.911Z,33.85
2017-10-15T09:35:11.425Z,33.95
2017-10-15T09:36:21.951Z,34.05
2017-10-15T09:37:32.446Z,34.05
2017-10-15T09:38:42.986Z,33.95
2017-10-15T09:39:53.678Z,34.42
2017-10-15T09:41:03.886Z,34.8
2017-10-15T09:42:14.399Z,34.7
2017-10-15T09:43:24.930Z,34.8
2017-10-15T09:44:35.503Z,34.98
2017-10-15T09:45:46.017Z,35.27
2017-10-15T09:46:56.626Z,35.16
2017-10-15T09:48:07.224Z,35.35
2017-10-15T09:49:17.854Z,35.65
2017-10-15T09:50:28.408Z,35.93
2017-10-15T09:51:39.142Z,36.12
2017-10-15T09:52:49.678Z,35.94
2017-10-15T09:54:00.240Z,35.85
2017-10-15T09:55:10.771Z,35.27
2017-10-15T09:56:21.351Z,35.27
2017-10-15T09:57:31.574Z,35.65
2017-10-15T09:58:41.870Z,35.75
2017-10-15T09:59:52.494Z,35.55
2017-10-15T10:01:03.079Z,35.63
2017-10-15T10:02:13.625Z,35.93
2017-10-15T10:03:24.154Z,35.83
2017-10-15T10:04:34.837Z,36.12
2017-10-15T10:05:45.377Z,35.93
2017-10-15T10:06:55.963Z,36.32
2017-10-15T10:08:06.703Z,36.69
2017-10-15T10:09:17.205Z,36.69
2017-10-15T10:10:27.796Z,36.71
2017-10-15T10:11:38.336Z,36.61
2017-10-15T10:12:48.872Z,36.32
2017-10-15T10:13:59.492Z,36.32
2017-10-15T10:15:10.049Z,36.32
2017-10-15T10:16:20.592Z,36.04
2017-10-15T10:17:31.343Z,36.24
2017-10-15T10:18:41.915Z,36.24
2017-10-15T10:19:52.465Z,36.14
2017-10-15T10:21:03.966Z,35.94
2017-10-15T10:22:14.490Z,36.06
2017-10-15T10:23:25.024Z,35.57
2017-10-15T10:24:35.539Z,35.76
2017-10-15T10:25:46.094Z,35.39
2017-10-15T10:26:56.655Z,35.39
2017-10-15T10:28:07.292Z,35.49
2017-10-15T10:29:17.516Z,35.29
2017-10-15T10:30:29.258Z,35.49
2017-10-15T10:31:43.746Z,34.61
2017-10-15T10:32:57.353Z,34.62
2017-10-15T10:34:07.891Z,34.81
2017-10-15T10:35:18.453Z,34.8
2017-10-15T10:36:28.965Z,34.41
2017-10-15T10:37:39.505Z,34.7
2017-10-15T10:38:50.143Z,34.69
2017-10-15T10:40:00.682Z,35.08
2017-10-15T10:41:11.234Z,35.16
2017-10-15T10:42:21.798Z,35.27
2017-10-15T10:43:32.336Z,34.8
2017-10-15T10:44:42.906Z,34.8
2017-10-15T10:45:53.485Z,34.8
2017-10-15T10:47:03.386Z,34.9
2017-10-15T10:48:13.925Z,34.8
2017-10-15T10:49:24.497Z,34.7
2017-10-15T10:50:35.121Z,34.61
2017-10-15T10:51:45.655Z,33.92
2017-10-15T10:52:56.258Z,34.69
2017-10-15T10:54:06.882Z,34.39
2017-10-15T10:55:17.091Z,34.67
2017-10-15T10:56:27.622Z,34.67
2017-10-15T10:57:37.879Z,34.84
2017-10-15T10:58:48.457Z,34.84
2017-10-15T10:59:58.794Z,34.65
2017-10-15T11:01:09.342Z,34.93
2017-10-15T11:02:19.995Z,35.3
2017-10-15T11:03:30.542Z,35.38
2017-10-15T11:04:40.726Z,36.36
2017-10-15T11:05:51.289Z,36.44
2017-10-15T11:07:01.846Z,36.73
2017-10-15T11:08:12.363Z,36.75
2017-10-15T11:09:22.946Z,36.94
2017-10-15T11:10:33.484Z,36.75
2017-10-15T11:11:44.041Z,36.85
2017-10-15T11:12:54.590Z,37.02
2017-10-15T11:14:05.140Z,37.12
2017-10-15T11:15:15.665Z,37.7
2017-10-15T11:16:26.234Z,37.6
2017-10-15T11:17:36.453Z,37.5
2017-10-15T11:18:47.358Z,37.79
2017-10-15T11:19:57.562Z,37.6
2017-10-15T11:21:08.117Z,37.89
2017-10-15T11:22:18.660Z,37.99
2017-10-15T11:23:29.845Z,37.6
2017-10-15T11:24:40.439Z,38.28
2017-10-15T11:25:50.982Z,37.99
2017-10-15T11:27:01.505Z,37.99
2017-10-15T11:28:11.774Z,37.99
2017-10-15T11:29:22.389Z,37.99
2017-10-15T11:30:32.932Z,37.52
2017-10-15T11:31:43.485Z,37.81
2017-10-15T11:32:54.051Z,37.04
2017-10-15T11:34:04.605Z,37.06
2017-10-15T11:35:15.240Z,36.75
2017-10-15T11:36:25.678Z,36.18
2017-10-15T11:37:36.241Z,36.28
2017-10-15T11:38:46.485Z,36.28
2017-10-15T11:39:57.123Z,36.08
2017-10-15T11:41:07.691Z,36.08
2017-10-15T11:42:18.298Z,35.89
2017-10-15T11:43:28.832Z,36.08
2017-10-15T11:44:39.606Z,35.77
2017-10-15T11:45:50.150Z,35.85
2017-10-15T11:47:00.706Z,36.52
2017-10-15T11:48:11.361Z,36.72
2017-10-15T11:49:21.906Z,36.9
2017-10-15T11:50:32.462Z,37.55
2017-10-15T11:51:42.653Z,37.54
2017-10-15T11:52:52.549Z,38.2
2017-10-15T11:54:02.777Z,39.06
2017-10-15T11:55:13.278Z,39.65
2017-10-15T11:56:25.078Z,39.82
2017-10-15T11:57:35.624Z,39.84
2017-10-15T11:58:46.277Z,39.75
2017-10-15T11:59:56.812Z,39.67
2017-10-15T12:01:07.411Z,39.57
2017-10-15T12:02:17.957Z,39.67
2017-10-15T12:03:28.639Z,39.57
2017-10-15T12:04:39.181Z,38.49
2017-10-15T12:05:49.495Z,38.79
2017-10-15T12:06:59.727Z,39.76
2017-10-15T12:08:10.282Z,39.57
2017-10-15T12:09:20.999Z,39.94
2017-10-15T12:10:32.278Z,40.03
2017-10-15T12:11:43.139Z,40.33
2017-10-15T12:12:53.676Z,40.41
2017-10-15T12:14:04.628Z,40.62
2017-10-15T12:15:15.375Z,40.23
2017-10-15T12:16:25.837Z,39.94
2017-10-15T12:17:36.352Z,40.42
2017-10-15T12:18:46.329Z,40.06
2017-10-15T12:19:56.686Z,40.16
2017-10-15T12:21:08.214Z,39.88
2017-10-15T12:22:18.902Z,39.98
2017-10-15T12:23:29.662Z,39.12
2017-10-15T12:24:39.938Z,38.84
2017-10-15T12:25:50.470Z,37.67
2017-10-15T12:27:01.020Z,37.87
2017-10-15T12:28:11.726Z,37.09
2017-10-15T12:29:23.314Z,37.85
2017-10-15T12:30:33.920Z,37.17
2017-10-15T12:31:44.284Z,37.65
2017-10-15T12:32:55.004Z,37.83
2017-10-15T12:34:05.606Z,37.73
2017-10-15T12:35:16.181Z,37.83
2017-10-15T12:36:26.454Z,37.93
2017-10-15T12:37:37.058Z,37.93
2017-10-15T12:38:47.687Z,38.61
2017-10-15T12:39:58.273Z,38.71
2017-10-15T12:41:08.558Z,38.71
2017-10-15T12:42:19.382Z,38.32
2017-10-15T12:43:30.627Z,38.42
2017-10-15T12:44:41.552Z,38.79
2017-10-15T12:45:52.128Z,38.79
2017-10-15T12:47:02.375Z,38.98
2017-10-15T12:48:13.003Z,39.45
2017-10-15T12:49:22.948Z,39.84
2017-10-15T12:50:33.599Z,40.21
2017-10-15T12:51:43.894Z,40.88
2017-10-15T12:52:55.464Z,40.88
2017-10-15T12:54:06.069Z,41.46
2017-10-15T12:55:16.720Z,41.16
2017-10-15T12:56:27.410Z,41.26
2017-10-15T12:57:38.006Z,41.93
2017-10-15T12:58:48.676Z,41.75
2017-10-15T12:59:59.286Z,41.26
2017-10-15T13:01:09.960Z,41.94
2017-10-15T13:02:20.775Z,41.73
2017-10-15T13:03:31.473Z,42.11
2017-10-15T13:04:41.403Z,42.02
2017-10-15T13:05:52.055Z,42.29
2017-10-15T13:07:02.299Z,42.49
2017-10-15T13:08:12.879Z,42.49
2017-10-15T13:09:23.027Z,42.68
2017-10-15T13:10:33.562Z,42.36
2017-10-15T13:11:44.101Z,43.05
2017-10-15T13:12:54.747Z,42.95
2017-10-15T13:14:05.364Z,43.41
2017-10-15T13:15:16.914Z,43.51
2017-10-15T13:16:28.580Z,43.8
2017-10-15T13:17:40.142Z,44
2017-10-15T13:18:50.732Z,44
2017-10-15T13:20:01.503Z,44.56
2017-10-15T13:21:11.797Z,44.75
2017-10-15T13:22:22.692Z,44.65
2017-10-15T13:23:33.313Z,44.85
2017-10-15T13:24:43.618Z,45.21
2017-10-15T13:25:53.980Z,45.7
2017-10-15T13:27:04.566Z,45.62
2017-10-15T13:28:15.159Z,45.61
2017-10-15T13:29:25.775Z,45.89
2017-10-15T13:30:36.336Z,46.38
2017-10-15T13:31:46.593Z,46.19
2017-10-15T13:32:56.908Z,46.48
2017-10-15T13:34:07.289Z,46.45
2017-10-15T13:35:18.030Z,46.94
2017-10-15T13:36:27.962Z,47.13
2017-10-15T13:37:38.047Z,46.55
2017-10-15T13:38:48.663Z,46.62
2017-10-15T13:39:59.276Z,47.02
2017-10-15T13:41:09.956Z,47.3
2017-10-15T13:42:20.592Z,47.69
2017-10-15T13:43:30.868Z,47.4
2017-10-15T13:44:41.212Z,47.5
2017-10-15T13:45:51.837Z,47.77
2017-10-15T13:47:02.407Z,47.69
2017-10-15T13:48:12.693Z,47.67
2017-10-15T13:49:23.303Z,48.25
2017-10-15T13:50:34.553Z,48.44
2017-10-15T13:51:44.757Z,48.93
2017-10-15T13:52:55.105Z,49.02
2017-10-15T13:54:05.675Z,49.51
2017-10-15T13:55:15.919Z,49.32
2017-10-15T13:56:25.423Z,49.32
2017-10-15T13:57:36.030Z,49.02
2017-10-15T13:58:47.572Z,49.12
2017-10-15T13:59:58.744Z,49.22
2017-10-15T14:01:09.374Z,49.22
2017-10-15T14:02:20.025Z,49.22
2017-10-15T14:03:30.552Z,49.41
2017-10-15T14:04:41.217Z,49.02
2017-10-15T14:05:52.784Z,49.12
2017-10-15T14:07:03.429Z,49.39
2017-10-15T14:08:13.566Z,49.7
2017-10-15T14:09:25.131Z,49.49
2017-10-15T14:10:35.756Z,49.58
2017-10-15T14:11:46.306Z,49.39
2017-10-15T14:12:56.173Z,49.39
2017-10-15T14:14:06.441Z,49.68
2017-10-15T14:15:16.977Z,49.58
2017-10-15T14:16:27.212Z,49.77
2017-10-15T14:17:37.980Z,49.39
2017-10-15T14:18:48.599Z,49.49
2017-10-15T14:19:59.256Z,49.49
2017-10-15T14:21:09.830Z,49.58
2017-10-15T14:22:20.382Z,49.39
2017-10-15T14:23:30.952Z,49.1
2017-10-15T14:24:41.504Z,49.29
2017-10-15T14:25:52.067Z,49
2017-10-15T14:27:02.627Z,49.49
2017-10-15T14:28:12.835Z,49.49
2017-10-15T14:29:23.533Z,49
2017-10-15T14:30:34.122Z,49.29
2017-10-15T14:31:44.745Z,49.29
2017-10-15T14:32:55.424Z,49.19
2017-10-15T14:34:05.955Z,49.1
2017-10-15T14:35:16.502Z,49.07
2017-10-15T14:36:26.772Z,49.17
2017-10-15T14:37:37.342Z,49.56
2017-10-15T14:38:48.091Z,49.37
2017-10-15T14:39:58.294Z,48.97
2017-10-15T14:41:08.611Z,49.07
2017-10-15T14:42:19.147Z,49.07
2017-10-15T14:43:30.702Z,49.27
2017-10-15T14:44:41.258Z,49.46
2017-10-15T14:45:51.833Z,49.34
2017-10-15T14:47:02.414Z,49.24
2017-10-15T14:48:12.944Z,49.44
2017-10-15T14:49:23.625Z,49.46
2017-10-15T14:50:34.183Z,49.44
2017-10-15T14:51:44.716Z,49.92
2017-10-15T14:52:55.285Z,49.34
2017-10-15T14:54:05.825Z,49.73
2017-10-15T14:55:16.429Z,49.73
2017-10-15T14:56:27.027Z,49.82
2017-10-15T14:57:37.295Z,50.24
2017-10-15T14:58:47.923Z,49.85
2017-10-15T14:59:58.706Z,50.02
2017-10-15T15:01:09.428Z,49.92
2017-10-15T15:02:19.775Z,50.4
2017-10-15T15:03:30.342Z,50.7
2017-10-15T15:04:40.696Z,50.4
2017-10-15T15:05:50.590Z,49.92
2017-10-15T15:07:01.252Z,50.6
2017-10-15T15:08:11.476Z,50.4
2017-10-15T15:09:21.436Z,50.38
2017-10-15T15:10:32.030Z,50.67
2017-10-15T15:11:42.561Z,50.38
2017-10-15T15:12:53.085Z,50.86
2017-10-15T15:14:03.723Z,50.67